sensor_id;sensor_type;location;lat;lon;timestamp;P1;durP1;ratioP1;P2;durP2;ratioP2
76039;SDS011;64736;50.462;4.850;2023-07-31T00:00:26;8.65;;;3.35;;
76039;SDS011;64736;50.462;4.850;2023-07-31T00:02:53;7.70;;;3.20;;
76039;SDS011;64736;50.462;4.850;2023-07-31T00:05:20;10.02;;;2.70;;
76039;SDS011;64736;50.462;4.850;2023-07-31T00:07:46;8.75;;;3.00;;
76039;SDS011;64736;50.462;4.850;2023-07-31T00:10:11;9.02;;;3.30;;
76039;SDS011;64736;50.462;4.850;2023-07-31T00:12:41;6.22;;;2.45;;
76039;SDS011;64736;50.462;4.850;2023-07-31T00:15:09;8.25;;;2.90;;
76039;SDS011;64736;50.462;4.850;2023-07-31T00:17:35;8.88;;;3.47;;
76039;SDS011;64736;50.462;4.850;2023-07-31T00:20:01;7.28;;;3.55;;
76039;SDS011;64736;50.462;4.850;2023-07-31T00:22:28;8.88;;;3.33;;
76039;SDS011;64736;50.462;4.850;2023-07-31T00:24:53;9.02;;;3.05;;
76039;SDS011;64736;50.462;4.850;2023-07-31T00:27:19;6.85;;;3.00;;
76039;SDS011;64736;50.462;4.850;2023-07-31T00:29:45;7.95;;;3.00;;
76039;SDS011;64736;50.462;4.850;2023-07-31T00:32:10;8.73;;;3.15;;
76039;SDS011;64736;50.462;4.850;2023-07-31T00:34:36;7.50;;;3.40;;
76039;SDS011;64736;50.462;4.850;2023-07-31T00:37:02;6.75;;;3.00;;
76039;SDS011;64736;50.462;4.850;2023-07-31T00:39:29;8.90;;;2.75;;
76039;SDS011;64736;50.462;4.850;2023-07-31T00:41:55;7.10;;;3.53;;
76039;SDS011;64736;50.462;4.850;2023-07-31T00:44:21;6.65;;;3.35;;
76039;SDS011;64736;50.462;4.850;2023-07-31T00:46:48;7.22;;;3.42;;
76039;SDS011;64736;50.462;4.850;2023-07-31T00:49:14;6.10;;;2.78;;
76039;SDS011;64736;50.462;4.850;2023-07-31T00:51:41;8.55;;;3.50;;
76039;SDS011;64736;50.462;4.850;2023-07-31T00:54:07;8.40;;;3.92;;
76039;SDS011;64736;50.462;4.850;2023-07-31T00:56:33;7.95;;;2.70;;
76039;SDS011;64736;50.462;4.850;2023-07-31T00:58:58;7.60;;;2.92;;
76039;SDS011;64736;50.462;4.850;2023-07-31T01:01:24;6.93;;;3.05;;
76039;SDS011;64736;50.462;4.850;2023-07-31T01:03:50;7.75;;;3.13;;
76039;SDS011;64736;50.462;4.850;2023-07-31T01:09:12;5.78;;;3.08;;
76039;SDS011;64736;50.462;4.850;2023-07-31T01:11:59;6.28;;;3.08;;
76039;SDS011;64736;50.462;4.850;2023-07-31T01:14:27;8.80;;;2.90;;
76039;SDS011;64736;50.462;4.850;2023-07-31T01:16:53;5.10;;;3.20;;
76039;SDS011;64736;50.462;4.850;2023-07-31T01:19:21;8.27;;;2.80;;
76039;SDS011;64736;50.462;4.850;2023-07-31T01:25:05;10.48;;;3.55;;
76039;SDS011;64736;50.462;4.850;2023-07-31T01:28:04;6.72;;;3.00;;
76039;SDS011;64736;50.462;4.850;2023-07-31T01:33:01;7.55;;;2.60;;
76039;SDS011;64736;50.462;4.850;2023-07-31T01:35:33;6.95;;;2.90;;
76039;SDS011;64736;50.462;4.850;2023-07-31T01:38:00;8.23;;;2.45;;
76039;SDS011;64736;50.462;4.850;2023-07-31T01:40:25;7.53;;;2.70;;
76039;SDS011;64736;50.462;4.850;2023-07-31T01:42:51;7.60;;;3.10;;
76039;SDS011;64736;50.462;4.850;2023-07-31T01:45:17;6.55;;;2.97;;
76039;SDS011;64736;50.462;4.850;2023-07-31T01:47:45;7.25;;;2.97;;
76039;SDS011;64736;50.462;4.850;2023-07-31T01:50:11;6.50;;;2.33;;
76039;SDS011;64736;50.462;4.850;2023-07-31T01:52:37;6.10;;;2.45;;
76039;SDS011;64736;50.462;4.850;2023-07-31T01:55:03;7.28;;;2.30;;
76039;SDS011;64736;50.462;4.850;2023-07-31T01:57:29;5.88;;;2.83;;
76039;SDS011;64736;50.462;4.850;2023-07-31T01:59:54;5.47;;;2.67;;
76039;SDS011;64736;50.462;4.850;2023-07-31T02:02:21;6.07;;;2.42;;
76039;SDS011;64736;50.462;4.850;2023-07-31T02:04:48;8.88;;;3.28;;
76039;SDS011;64736;50.462;4.850;2023-07-31T02:07:14;7.43;;;2.90;;
76039;SDS011;64736;50.462;4.850;2023-07-31T02:09:40;7.75;;;2.75;;
76039;SDS011;64736;50.462;4.850;2023-07-31T02:12:06;7.03;;;2.92;;
76039;SDS011;64736;50.462;4.850;2023-07-31T02:14:33;6.93;;;2.70;;
76039;SDS011;64736;50.462;4.850;2023-07-31T02:17:00;5.53;;;2.45;;
76039;SDS011;64736;50.462;4.850;2023-07-31T02:19:26;8.00;;;2.80;;
76039;SDS011;64736;50.462;4.850;2023-07-31T02:21:51;7.68;;;2.22;;
76039;SDS011;64736;50.462;4.850;2023-07-31T02:24:17;6.60;;;2.35;;
76039;SDS011;64736;50.462;4.850;2023-07-31T02:26:43;12.77;;;2.50;;
76039;SDS011;64736;50.462;4.850;2023-07-31T02:29:08;5.72;;;2.58;;
76039;SDS011;64736;50.462;4.850;2023-07-31T02:31:34;9.00;;;3.60;;
76039;SDS011;64736;50.462;4.850;2023-07-31T02:34:00;6.55;;;2.67;;
76039;SDS011;64736;50.462;4.850;2023-07-31T02:36:26;5.75;;;2.42;;
76039;SDS011;64736;50.462;4.850;2023-07-31T02:38:52;6.13;;;2.30;;
76039;SDS011;64736;50.462;4.850;2023-07-31T02:41:17;5.30;;;2.60;;
76039;SDS011;64736;50.462;4.850;2023-07-31T02:43:43;5.95;;;2.75;;
76039;SDS011;64736;50.462;4.850;2023-07-31T02:46:09;6.18;;;2.65;;
76039;SDS011;64736;50.462;4.850;2023-07-31T02:48:35;7.68;;;2.72;;
76039;SDS011;64736;50.462;4.850;2023-07-31T02:51:00;7.20;;;2.60;;
76039;SDS011;64736;50.462;4.850;2023-07-31T02:53:26;5.68;;;2.53;;
76039;SDS011;64736;50.462;4.850;2023-07-31T02:55:52;7.30;;;2.60;;
76039;SDS011;64736;50.462;4.850;2023-07-31T02:58:17;7.82;;;2.40;;
76039;SDS011;64736;50.462;4.850;2023-07-31T03:00:44;5.63;;;2.60;;
76039;SDS011;64736;50.462;4.850;2023-07-31T03:03:10;5.53;;;2.30;;
76039;SDS011;64736;50.462;4.850;2023-07-31T03:05:36;5.38;;;2.08;;
76039;SDS011;64736;50.462;4.850;2023-07-31T03:08:02;6.97;;;2.50;;
76039;SDS011;64736;50.462;4.850;2023-07-31T03:10:28;6.47;;;2.30;;
76039;SDS011;64736;50.462;4.850;2023-07-31T03:12:53;5.97;;;2.63;;
76039;SDS011;64736;50.462;4.850;2023-07-31T03:15:19;5.93;;;2.80;;
76039;SDS011;64736;50.462;4.850;2023-07-31T03:17:45;5.55;;;2.20;;
76039;SDS011;64736;50.462;4.850;2023-07-31T03:20:10;4.55;;;1.88;;
76039;SDS011;64736;50.462;4.850;2023-07-31T03:22:36;6.35;;;3.28;;
76039;SDS011;64736;50.462;4.850;2023-07-31T03:25:03;6.78;;;2.70;;
76039;SDS011;64736;50.462;4.850;2023-07-31T03:27:29;5.60;;;2.38;;
76039;SDS011;64736;50.462;4.850;2023-07-31T03:29:55;6.25;;;2.85;;
76039;SDS011;64736;50.462;4.850;2023-07-31T03:32:20;6.13;;;2.60;;
76039;SDS011;64736;50.462;4.850;2023-07-31T03:34:46;6.15;;;2.38;;
76039;SDS011;64736;50.462;4.850;2023-07-31T03:37:12;7.25;;;2.80;;
76039;SDS011;64736;50.462;4.850;2023-07-31T03:39:38;5.75;;;2.67;;
76039;SDS011;64736;50.462;4.850;2023-07-31T03:42:03;7.30;;;2.53;;
76039;SDS011;64736;50.462;4.850;2023-07-31T03:44:29;5.47;;;2.20;;
76039;SDS011;64736;50.462;4.850;2023-07-31T03:46:55;6.18;;;2.42;;
76039;SDS011;64736;50.462;4.850;2023-07-31T03:49:21;8.48;;;2.38;;
76039;SDS011;64736;50.462;4.850;2023-07-31T03:51:47;7.47;;;2.67;;
76039;SDS011;64736;50.462;4.850;2023-07-31T03:54:13;7.65;;;3.05;;
76039;SDS011;64736;50.462;4.850;2023-07-31T03:56:39;6.65;;;2.47;;
76039;SDS011;64736;50.462;4.850;2023-07-31T03:59:05;6.32;;;2.50;;
76039;SDS011;64736;50.462;4.850;2023-07-31T04:01:30;7.05;;;2.55;;
76039;SDS011;64736;50.462;4.850;2023-07-31T04:03:56;6.72;;;2.47;;
76039;SDS011;64736;50.462;4.850;2023-07-31T04:06:22;5.95;;;2.45;;
76039;SDS011;64736;50.462;4.850;2023-07-31T04:08:47;6.22;;;2.42;;
76039;SDS011;64736;50.462;4.850;2023-07-31T04:11:13;6.00;;;2.67;;
76039;SDS011;64736;50.462;4.850;2023-07-31T04:13:39;7.20;;;2.33;;
76039;SDS011;64736;50.462;4.850;2023-07-31T04:16:05;6.72;;;2.40;;
76039;SDS011;64736;50.462;4.850;2023-07-31T04:18:31;5.38;;;2.20;;
76039;SDS011;64736;50.462;4.850;2023-07-31T04:20:57;5.30;;;2.13;;
76039;SDS011;64736;50.462;4.850;2023-07-31T04:23:29;5.25;;;2.28;;
76039;SDS011;64736;50.462;4.850;2023-07-31T04:25:55;5.93;;;2.42;;
76039;SDS011;64736;50.462;4.850;2023-07-31T04:28:21;5.82;;;2.08;;
76039;SDS011;64736;50.462;4.850;2023-07-31T04:30:47;7.07;;;2.58;;
76039;SDS011;64736;50.462;4.850;2023-07-31T04:33:13;6.25;;;2.30;;
76039;SDS011;64736;50.462;4.850;2023-07-31T04:35:39;6.70;;;2.13;;
76039;SDS011;64736;50.462;4.850;2023-07-31T04:38:05;6.43;;;2.50;;
76039;SDS011;64736;50.462;4.850;2023-07-31T04:40:30;7.68;;;2.40;;
76039;SDS011;64736;50.462;4.850;2023-07-31T04:42:56;7.75;;;3.78;;
76039;SDS011;64736;50.462;4.850;2023-07-31T04:45:22;6.80;;;2.42;;
76039;SDS011;64736;50.462;4.850;2023-07-31T04:47:48;4.88;;;1.98;;
76039;SDS011;64736;50.462;4.850;2023-07-31T04:50:14;5.57;;;1.95;;
76039;SDS011;64736;50.462;4.850;2023-07-31T04:52:39;6.68;;;2.25;;
76039;SDS011;64736;50.462;4.850;2023-07-31T04:55:05;6.28;;;2.55;;
76039;SDS011;64736;50.462;4.850;2023-07-31T04:57:31;5.53;;;1.83;;
76039;SDS011;64736;50.462;4.850;2023-07-31T04:59:57;6.07;;;2.10;;
76039;SDS011;64736;50.462;4.850;2023-07-31T05:02:22;5.20;;;2.00;;
76039;SDS011;64736;50.462;4.850;2023-07-31T05:04:50;5.85;;;2.58;;
76039;SDS011;64736;50.462;4.850;2023-07-31T05:07:16;5.13;;;2.20;;
76039;SDS011;64736;50.462;4.850;2023-07-31T05:09:42;5.07;;;2.38;;
76039;SDS011;64736;50.462;4.850;2023-07-31T05:12:08;6.90;;;2.17;;
76039;SDS011;64736;50.462;4.850;2023-07-31T05:14:34;7.28;;;2.70;;
76039;SDS011;64736;50.462;4.850;2023-07-31T05:16:59;6.72;;;1.88;;
76039;SDS011;64736;50.462;4.850;2023-07-31T05:19:25;7.00;;;2.33;;
76039;SDS011;64736;50.462;4.850;2023-07-31T05:21:51;6.20;;;2.25;;
76039;SDS011;64736;50.462;4.850;2023-07-31T05:24:17;7.68;;;1.90;;
76039;SDS011;64736;50.462;4.850;2023-07-31T05:26:42;5.18;;;1.92;;
76039;SDS011;64736;50.462;4.850;2023-07-31T05:29:08;6.18;;;2.03;;
76039;SDS011;64736;50.462;4.850;2023-07-31T05:31:34;9.02;;;2.53;;
76039;SDS011;64736;50.462;4.850;2023-07-31T05:34:00;6.40;;;2.38;;
76039;SDS011;64736;50.462;4.850;2023-07-31T05:36:25;6.55;;;2.50;;
76039;SDS011;64736;50.462;4.850;2023-07-31T05:38:51;5.75;;;2.35;;
76039;SDS011;64736;50.462;4.850;2023-07-31T05:41:17;6.60;;;2.28;;
76039;SDS011;64736;50.462;4.850;2023-07-31T05:43:43;6.88;;;2.20;;
76039;SDS011;64736;50.462;4.850;2023-07-31T05:46:09;5.40;;;1.80;;
76039;SDS011;64736;50.462;4.850;2023-07-31T05:48:35;6.60;;;1.77;;
76039;SDS011;64736;50.462;4.850;2023-07-31T05:51:01;4.82;;;1.80;;
76039;SDS011;64736;50.462;4.850;2023-07-31T05:53:27;7.78;;;2.35;;
76039;SDS011;64736;50.462;4.850;2023-07-31T05:55:52;5.60;;;2.55;;
76039;SDS011;64736;50.462;4.850;2023-07-31T05:58:18;6.93;;;2.00;;
76039;SDS011;64736;50.462;4.850;2023-07-31T06:00:44;5.50;;;2.38;;
76039;SDS011;64736;50.462;4.850;2023-07-31T10:20:02;7.60;;;3.15;;
76039;SDS011;64736;50.462;4.850;2023-07-31T10:22:30;9.00;;;3.33;;
76039;SDS011;64736;50.462;4.850;2023-07-31T10:24:57;5.50;;;2.78;;
76039;SDS011;64736;50.462;4.850;2023-07-31T10:27:24;7.18;;;3.13;;
76039;SDS011;64736;50.462;4.850;2023-07-31T10:29:50;7.68;;;3.10;;
76039;SDS011;64736;50.462;4.850;2023-07-31T10:32:17;7.07;;;3.38;;
76039;SDS011;64736;50.462;4.850;2023-07-31T10:34:44;8.32;;;3.35;;
76039;SDS011;64736;50.462;4.850;2023-07-31T10:37:23;6.45;;;3.63;;
76039;SDS011;64736;50.462;4.850;2023-07-31T10:40:03;9.10;;;3.35;;
76039;SDS011;64736;50.462;4.850;2023-07-31T10:42:38;6.15;;;2.75;;
76039;SDS011;64736;50.462;4.850;2023-07-31T10:45:08;7.32;;;2.80;;
76039;SDS011;64736;50.462;4.850;2023-07-31T10:47:37;6.75;;;2.80;;
76039;SDS011;64736;50.462;4.850;2023-07-31T10:50:13;6.00;;;2.88;;
76039;SDS011;64736;50.462;4.850;2023-07-31T10:52:47;6.38;;;3.03;;
76039;SDS011;64736;50.462;4.850;2023-07-31T10:56:00;6.93;;;3.08;;
76039;SDS011;64736;50.462;4.850;2023-07-31T10:58:10;5.90;;;3.08;;
76039;SDS011;64736;50.462;4.850;2023-07-31T11:00:44;7.32;;;3.10;;
76039;SDS011;64736;50.462;4.850;2023-07-31T11:03:16;6.50;;;3.42;;
76039;SDS011;64736;50.462;4.850;2023-07-31T11:05:47;5.63;;;2.55;;
76039;SDS011;64736;50.462;4.850;2023-07-31T11:10:47;5.90;;;2.30;;
76039;SDS011;64736;50.462;4.850;2023-07-31T11:13:14;9.35;;;3.05;;
76039;SDS011;64736;50.462;4.850;2023-07-31T11:15:40;7.60;;;2.83;;
76039;SDS011;64736;50.462;4.850;2023-07-31T11:18:06;7.40;;;3.28;;
76039;SDS011;64736;50.462;4.850;2023-07-31T11:20:33;5.63;;;2.63;;
76039;SDS011;64736;50.462;4.850;2023-07-31T11:23:11;6.93;;;3.03;;
76039;SDS011;64736;50.462;4.850;2023-07-31T11:25:37;9.15;;;3.58;;
76039;SDS011;64736;50.462;4.850;2023-07-31T11:28:10;11.05;;;3.40;;
76039;SDS011;64736;50.462;4.850;2023-07-31T11:30:40;8.52;;;4.38;;
76039;SDS011;64736;50.462;4.850;2023-07-31T11:33:07;7.15;;;3.50;;
76039;SDS011;64736;50.462;4.850;2023-07-31T11:35:35;7.70;;;2.83;;
76039;SDS011;64736;50.462;4.850;2023-07-31T11:38:10;6.72;;;3.00;;
76039;SDS011;64736;50.462;4.850;2023-07-31T11:40:41;8.13;;;3.08;;
76039;SDS011;64736;50.462;4.850;2023-07-31T11:43:07;7.28;;;2.88;;
76039;SDS011;64736;50.462;4.850;2023-07-31T11:45:33;7.15;;;2.70;;
76039;SDS011;64736;50.462;4.850;2023-07-31T11:48:00;4.95;;;2.45;;
76039;SDS011;64736;50.462;4.850;2023-07-31T11:50:26;9.13;;;3.53;;
76039;SDS011;64736;50.462;4.850;2023-07-31T11:52:54;7.07;;;3.25;;
76039;SDS011;64736;50.462;4.850;2023-07-31T11:55:24;7.03;;;3.17;;
76039;SDS011;64736;50.462;4.850;2023-07-31T11:57:51;7.00;;;3.40;;
76039;SDS011;64736;50.462;4.850;2023-07-31T12:00:18;7.05;;;3.72;;
76039;SDS011;64736;50.462;4.850;2023-07-31T12:02:44;7.57;;;3.67;;
76039;SDS011;64736;50.462;4.850;2023-07-31T12:05:11;7.28;;;3.45;;
76039;SDS011;64736;50.462;4.850;2023-07-31T12:07:47;6.72;;;3.40;;
76039;SDS011;64736;50.462;4.850;2023-07-31T12:13:09;5.93;;;2.85;;
76039;SDS011;64736;50.462;4.850;2023-07-31T12:18:06;7.13;;;3.08;;
76039;SDS011;64736;50.462;4.850;2023-07-31T12:20:33;9.63;;;5.07;;
76039;SDS011;64736;50.462;4.850;2023-07-31T12:22:59;6.38;;;2.90;;
76039;SDS011;64736;50.462;4.850;2023-07-31T12:25:34;7.20;;;2.95;;
76039;SDS011;64736;50.462;4.850;2023-07-31T12:28:04;8.02;;;3.22;;
76039;SDS011;64736;50.462;4.850;2023-07-31T12:30:32;8.75;;;3.53;;
76039;SDS011;64736;50.462;4.850;2023-07-31T12:33:06;7.57;;;3.47;;
76039;SDS011;64736;50.462;4.850;2023-07-31T12:35:37;7.25;;;3.38;;
76039;SDS011;64736;50.462;4.850;2023-07-31T12:38:05;6.88;;;3.17;;
76039;SDS011;64736;50.462;4.850;2023-07-31T12:40:31;6.38;;;3.60;;
76039;SDS011;64736;50.462;4.850;2023-07-31T12:42:57;8.50;;;3.38;;
76039;SDS011;64736;50.462;4.850;2023-07-31T12:45:25;8.93;;;3.47;;
76039;SDS011;64736;50.462;4.850;2023-07-31T12:47:52;7.05;;;3.50;;
76039;SDS011;64736;50.462;4.850;2023-07-31T12:50:17;7.10;;;3.83;;
76039;SDS011;64736;50.462;4.850;2023-07-31T12:52:43;8.23;;;3.72;;
76039;SDS011;64736;50.462;4.850;2023-07-31T12:55:09;8.45;;;3.45;;
76039;SDS011;64736;50.462;4.850;2023-07-31T12:57:36;6.82;;;3.17;;
76039;SDS011;64736;50.462;4.850;2023-07-31T13:00:01;9.60;;;3.67;;
76039;SDS011;64736;50.462;4.850;2023-07-31T13:02:28;6.82;;;3.60;;
76039;SDS011;64736;50.462;4.850;2023-07-31T13:04:53;9.05;;;4.13;;
76039;SDS011;64736;50.462;4.850;2023-07-31T13:07:19;8.50;;;3.88;;
76039;SDS011;64736;50.462;4.850;2023-07-31T13:09:45;10.18;;;5.72;;
76039;SDS011;64736;50.462;4.850;2023-07-31T13:12:20;8.68;;;4.45;;
76039;SDS011;64736;50.462;4.850;2023-07-31T13:14:45;7.53;;;3.92;;
76039;SDS011;64736;50.462;4.850;2023-07-31T13:17:11;10.23;;;4.30;;
76039;SDS011;64736;50.462;4.850;2023-07-31T13:19:37;9.32;;;4.15;;
76039;SDS011;64736;50.462;4.850;2023-07-31T13:22:03;9.63;;;4.18;;
76039;SDS011;64736;50.462;4.850;2023-07-31T13:24:29;7.30;;;3.47;;
76039;SDS011;64736;50.462;4.850;2023-07-31T13:26:55;10.23;;;3.90;;
76039;SDS011;64736;50.462;4.850;2023-07-31T13:29:21;7.18;;;3.83;;
76039;SDS011;64736;50.462;4.850;2023-07-31T13:31:47;7.63;;;3.80;;
76039;SDS011;64736;50.462;4.850;2023-07-31T13:34:13;7.20;;;3.58;;
76039;SDS011;64736;50.462;4.850;2023-07-31T13:36:39;5.60;;;2.63;;
76039;SDS011;64736;50.462;4.850;2023-07-31T13:39:04;7.72;;;2.90;;
76039;SDS011;64736;50.462;4.850;2023-07-31T13:41:30;8.25;;;3.20;;
76039;SDS011;64736;50.462;4.850;2023-07-31T13:43:55;5.57;;;2.30;;
76039;SDS011;64736;50.462;4.850;2023-07-31T13:46:21;5.57;;;2.58;;
76039;SDS011;64736;50.462;4.850;2023-07-31T13:48:46;5.63;;;2.50;;
76039;SDS011;64736;50.462;4.850;2023-07-31T13:51:12;5.90;;;2.60;;
76039;SDS011;64736;50.462;4.850;2023-07-31T13:53:37;6.50;;;2.38;;
76039;SDS011;64736;50.462;4.850;2023-07-31T13:56:03;5.40;;;2.58;;
76039;SDS011;64736;50.462;4.850;2023-07-31T13:58:29;6.72;;;2.70;;
76039;SDS011;64736;50.462;4.850;2023-07-31T14:00:54;8.00;;;2.97;;
76039;SDS011;64736;50.462;4.850;2023-07-31T14:03:20;6.57;;;3.05;;
76039;SDS011;64736;50.462;4.850;2023-07-31T14:05:52;7.00;;;2.53;;
76039;SDS011;64736;50.462;4.850;2023-07-31T14:08:18;8.13;;;3.50;;
76039;SDS011;64736;50.462;4.850;2023-07-31T14:10:43;5.55;;;2.78;;
76039;SDS011;64736;50.462;4.850;2023-07-31T14:13:09;7.22;;;3.15;;
76039;SDS011;64736;50.462;4.850;2023-07-31T14:15:35;7.85;;;3.13;;
76039;SDS011;64736;50.462;4.850;2023-07-31T14:18:01;7.75;;;2.80;;
76039;SDS011;64736;50.462;4.850;2023-07-31T14:20:27;6.32;;;2.58;;
76039;SDS011;64736;50.462;4.850;2023-07-31T14:22:53;6.38;;;3.08;;
76039;SDS011;64736;50.462;4.850;2023-07-31T14:25:18;6.72;;;3.08;;
76039;SDS011;64736;50.462;4.850;2023-07-31T14:27:44;7.07;;;3.42;;
76039;SDS011;64736;50.462;4.850;2023-07-31T14:30:10;7.32;;;3.00;;
76039;SDS011;64736;50.462;4.850;2023-07-31T14:32:35;7.00;;;3.28;;
76039;SDS011;64736;50.462;4.850;2023-07-31T14:35:02;6.05;;;3.05;;
76039;SDS011;64736;50.462;4.850;2023-07-31T14:37:36;7.72;;;3.55;;
76039;SDS011;64736;50.462;4.850;2023-07-31T14:40:06;6.97;;;3.10;;
76039;SDS011;64736;50.462;4.850;2023-07-31T14:42:33;6.75;;;3.03;;
76039;SDS011;64736;50.462;4.850;2023-07-31T14:44:59;6.40;;;2.83;;
76039;SDS011;64736;50.462;4.850;2023-07-31T14:47:25;7.15;;;2.97;;
76039;SDS011;64736;50.462;4.850;2023-07-31T14:49:50;7.78;;;3.03;;
76039;SDS011;64736;50.462;4.850;2023-07-31T14:52:16;5.32;;;2.50;;
76039;SDS011;64736;50.462;4.850;2023-07-31T14:54:42;5.47;;;2.88;;
76039;SDS011;64736;50.462;4.850;2023-07-31T14:57:07;6.47;;;2.30;;
76039;SDS011;64736;50.462;4.850;2023-07-31T14:59:33;6.00;;;2.80;;
76039;SDS011;64736;50.462;4.850;2023-07-31T15:01:59;7.55;;;2.72;;
76039;SDS011;64736;50.462;4.850;2023-07-31T15:04:24;6.35;;;2.40;;
76039;SDS011;64736;50.462;4.850;2023-07-31T15:06:51;5.03;;;2.03;;
76039;SDS011;64736;50.462;4.850;2023-07-31T15:09:17;5.90;;;2.30;;
76039;SDS011;64736;50.462;4.850;2023-07-31T15:11:43;4.10;;;2.10;;
76039;SDS011;64736;50.462;4.850;2023-07-31T15:14:08;6.03;;;2.00;;
76039;SDS011;64736;50.462;4.850;2023-07-31T15:16:34;6.22;;;2.45;;
76039;SDS011;64736;50.462;4.850;2023-07-31T15:19:00;8.00;;;2.83;;
76039;SDS011;64736;50.462;4.850;2023-07-31T15:21:26;5.22;;;2.42;;
76039;SDS011;64736;50.462;4.850;2023-07-31T15:23:52;6.25;;;2.53;;
76039;SDS011;64736;50.462;4.850;2023-07-31T15:26:18;5.50;;;2.67;;
76039;SDS011;64736;50.462;4.850;2023-07-31T15:28:48;5.32;;;2.22;;
76039;SDS011;64736;50.462;4.850;2023-07-31T15:31:15;5.55;;;2.10;;
76039;SDS011;64736;50.462;4.850;2023-07-31T15:33:41;5.45;;;2.33;;
76039;SDS011;64736;50.462;4.850;2023-07-31T15:36:06;6.32;;;2.28;;
76039;SDS011;64736;50.462;4.850;2023-07-31T15:38:32;6.35;;;3.15;;
76039;SDS011;64736;50.462;4.850;2023-07-31T15:40:58;7.63;;;2.47;;
76039;SDS011;64736;50.462;4.850;2023-07-31T15:43:23;6.28;;;3.08;;
76039;SDS011;64736;50.462;4.850;2023-07-31T15:45:49;6.43;;;3.10;;
76039;SDS011;64736;50.462;4.850;2023-07-31T15:48:15;10.77;;;3.05;;
76039;SDS011;64736;50.462;4.850;2023-07-31T15:50:43;5.65;;;2.50;;
76039;SDS011;64736;50.462;4.850;2023-07-31T15:53:09;6.87;;;2.93;;
76039;SDS011;64736;50.462;4.850;2023-07-31T15:55:34;5.97;;;2.13;;
76039;SDS011;64736;50.462;4.850;2023-07-31T15:58:00;5.50;;;2.22;;
76039;SDS011;64736;50.462;4.850;2023-07-31T16:00:25;5.05;;;2.00;;
76039;SDS011;64736;50.462;4.850;2023-07-31T16:02:51;5.82;;;2.42;;
76039;SDS011;64736;50.462;4.850;2023-07-31T16:05:17;4.70;;;2.00;;
76039;SDS011;64736;50.462;4.850;2023-07-31T16:07:42;5.00;;;1.70;;
76039;SDS011;64736;50.462;4.850;2023-07-31T16:10:08;4.32;;;1.60;;
76039;SDS011;64736;50.462;4.850;2023-07-31T16:12:34;4.43;;;1.80;;
76039;SDS011;64736;50.462;4.850;2023-07-31T16:14:59;4.18;;;1.70;;
76039;SDS011;64736;50.462;4.850;2023-07-31T16:17:25;5.55;;;2.42;;
76039;SDS011;64736;50.462;4.850;2023-07-31T16:19:51;5.75;;;1.83;;
76039;SDS011;64736;50.462;4.850;2023-07-31T16:22:16;5.35;;;2.10;;
76039;SDS011;64736;50.462;4.850;2023-07-31T16:24:42;4.07;;;1.70;;
76039;SDS011;64736;50.462;4.850;2023-07-31T16:27:07;4.15;;;1.58;;
76039;SDS011;64736;50.462;4.850;2023-07-31T16:29:33;5.30;;;2.55;;
76039;SDS011;64736;50.462;4.850;2023-07-31T16:31:59;4.15;;;1.75;;
76039;SDS011;64736;50.462;4.850;2023-07-31T16:34:25;4.85;;;2.10;;
76039;SDS011;64736;50.462;4.850;2023-07-31T16:36:51;5.22;;;1.70;;
76039;SDS011;64736;50.462;4.850;2023-07-31T16:39:19;5.27;;;2.17;;
76039;SDS011;64736;50.462;4.850;2023-07-31T16:41:47;5.35;;;1.73;;
76039;SDS011;64736;50.462;4.850;2023-07-31T16:44:13;5.38;;;1.60;;
76039;SDS011;64736;50.462;4.850;2023-07-31T16:46:40;4.88;;;1.73;;
76039;SDS011;64736;50.462;4.850;2023-07-31T16:49:06;5.75;;;2.22;;
76039;SDS011;64736;50.462;4.850;2023-07-31T16:51:32;5.65;;;2.05;;
76039;SDS011;64736;50.462;4.850;2023-07-31T16:53:57;4.90;;;2.03;;
76039;SDS011;64736;50.462;4.850;2023-07-31T16:56:23;5.03;;;1.70;;
76039;SDS011;64736;50.462;4.850;2023-07-31T16:58:48;5.45;;;1.90;;
76039;SDS011;64736;50.462;4.850;2023-07-31T17:01:14;5.43;;;1.95;;
76039;SDS011;64736;50.462;4.850;2023-07-31T17:03:40;4.47;;;1.80;;
76039;SDS011;64736;50.462;4.850;2023-07-31T17:06:05;5.60;;;2.22;;
76039;SDS011;64736;50.462;4.850;2023-07-31T17:08:31;4.53;;;1.75;;
76039;SDS011;64736;50.462;4.850;2023-07-31T17:10:56;5.15;;;2.10;;
76039;SDS011;64736;50.462;4.850;2023-07-31T17:13:22;5.05;;;2.00;;
76039;SDS011;64736;50.462;4.850;2023-07-31T17:15:47;6.05;;;2.17;;
76039;SDS011;64736;50.462;4.850;2023-07-31T17:18:13;4.93;;;2.10;;
76039;SDS011;64736;50.462;4.850;2023-07-31T17:20:39;6.20;;;1.92;;
76039;SDS011;64736;50.462;4.850;2023-07-31T17:23:05;4.72;;;1.80;;
76039;SDS011;64736;50.462;4.850;2023-07-31T17:25:31;5.10;;;2.10;;
76039;SDS011;64736;50.462;4.850;2023-07-31T17:27:56;5.15;;;2.00;;
76039;SDS011;64736;50.462;4.850;2023-07-31T17:30:22;5.22;;;1.75;;
76039;SDS011;64736;50.462;4.850;2023-07-31T17:32:47;5.55;;;1.77;;
76039;SDS011;64736;50.462;4.850;2023-07-31T17:35:13;4.75;;;2.03;;
76039;SDS011;64736;50.462;4.850;2023-07-31T17:37:39;5.20;;;1.92;;
76039;SDS011;64736;50.462;4.850;2023-07-31T17:40:04;5.13;;;1.65;;
76039;SDS011;64736;50.462;4.850;2023-07-31T17:42:30;5.78;;;1.70;;
76039;SDS011;64736;50.462;4.850;2023-07-31T17:44:56;4.13;;;1.60;;
76039;SDS011;64736;50.462;4.850;2023-07-31T17:47:22;5.72;;;1.88;;
76039;SDS011;64736;50.462;4.850;2023-07-31T17:49:47;6.38;;;2.17;;
76039;SDS011;64736;50.462;4.850;2023-07-31T17:52:13;4.72;;;1.70;;
76039;SDS011;64736;50.462;4.850;2023-07-31T17:54:38;4.55;;;1.90;;
76039;SDS011;64736;50.462;4.850;2023-07-31T17:57:05;4.93;;;1.70;;
76039;SDS011;64736;50.462;4.850;2023-07-31T17:59:31;6.00;;;2.00;;
76039;SDS011;64736;50.462;4.850;2023-07-31T18:01:57;5.00;;;2.05;;
76039;SDS011;64736;50.462;4.850;2023-07-31T18:04:22;5.63;;;1.52;;
76039;SDS011;64736;50.462;4.850;2023-07-31T18:06:48;4.03;;;1.30;;
76039;SDS011;64736;50.462;4.850;2023-07-31T18:09:13;3.50;;;1.50;;
76039;SDS011;64736;50.462;4.850;2023-07-31T18:11:39;4.00;;;1.58;;
76039;SDS011;64736;50.462;4.850;2023-07-31T18:14:04;4.75;;;1.70;;
76039;SDS011;64736;50.462;4.850;2023-07-31T18:16:30;3.88;;;1.52;;
76039;SDS011;64736;50.462;4.850;2023-07-31T18:18:56;5.78;;;1.90;;
76039;SDS011;64736;50.462;4.850;2023-07-31T18:21:21;6.32;;;1.92;;
76039;SDS011;64736;50.462;4.850;2023-07-31T18:23:47;4.07;;;1.55;;
76039;SDS011;64736;50.462;4.850;2023-07-31T18:26:13;5.13;;;1.45;;
76039;SDS011;64736;50.462;4.850;2023-07-31T18:28:39;5.30;;;1.73;;
76039;SDS011;64736;50.462;4.850;2023-07-31T18:31:04;4.47;;;1.63;;
76039;SDS011;64736;50.462;4.850;2023-07-31T18:33:31;6.40;;;1.92;;
76039;SDS011;64736;50.462;4.850;2023-07-31T18:35:56;4.05;;;1.35;;
76039;SDS011;64736;50.462;4.850;2023-07-31T18:38:22;3.47;;;1.30;;
76039;SDS011;64736;50.462;4.850;2023-07-31T18:40:48;4.03;;;1.33;;
76039;SDS011;64736;50.462;4.850;2023-07-31T18:43:14;4.05;;;1.48;;
76039;SDS011;64736;50.462;4.850;2023-07-31T18:45:39;6.82;;;2.10;;
76039;SDS011;64736;50.462;4.850;2023-07-31T18:48:05;4.40;;;1.80;;
76039;SDS011;64736;50.462;4.850;2023-07-31T18:50:30;4.60;;;1.48;;
76039;SDS011;64736;50.462;4.850;2023-07-31T18:52:56;4.93;;;1.80;;
76039;SDS011;64736;50.462;4.850;2023-07-31T18:55:22;4.95;;;1.60;;
76039;SDS011;64736;50.462;4.850;2023-07-31T18:57:50;5.75;;;1.95;;
76039;SDS011;64736;50.462;4.850;2023-07-31T19:00:15;4.45;;;1.73;;
76039;SDS011;64736;50.462;4.850;2023-07-31T19:02:41;4.32;;;1.50;;
76039;SDS011;64736;50.462;4.850;2023-07-31T19:05:07;4.40;;;1.85;;
76039;SDS011;64736;50.462;4.850;2023-07-31T19:07:33;4.60;;;1.70;;
76039;SDS011;64736;50.462;4.850;2023-07-31T19:09:59;3.58;;;1.15;;
76039;SDS011;64736;50.462;4.850;2023-07-31T19:12:25;4.25;;;1.65;;
76039;SDS011;64736;50.462;4.850;2023-07-31T19:14:51;4.18;;;1.50;;
76039;SDS011;64736;50.462;4.850;2023-07-31T19:17:16;5.72;;;1.88;;